Somers, WI (53171)

4:41 AM CDT on July 27, 2016 (GMT -0500)
Stonefield North | | Change Station

Elev 728 ft 42.62 °N, 87.87 °W | Updated 32 seconds ago

Clear
Clear
68.7 °F
Feels Like 68.7 °F
N
0.7
Wind Variable Wind from West
Gusts 2.2 mph

Today
High -- | Low -- °F
--% Chance of Precip.
Yesterday
High -- | Low -- °F
Precip. -- in
Pressure 30.00 in
Visibility 10.0 miles
Clouds Clear
Dew Point 61 °F
Humidity 76%
Rainfall 0.00 in
Snow Depth Not available.
5:38 AM 8:16 PM
Last Quarter, 45% visible
METAR KENW 270853Z AUTO 30003KT 10SM CLR 19/17 A3001 RMK AO2 SLP157 T01890172 53001
Pressure 30.00 in
Visibility 10.0 miles
Clouds Clear
Dew Point 61 °F
Humidity 76%
Rainfall 0.00 in
Snow Depth Not available.
5:38 AM 8:16 PM
Last Quarter, 45% visible
METAR KENW 270853Z AUTO 30003KT 10SM CLR 19/17 A3001 RMK AO2 SLP157 T01890172 53001

10-Day Weather Forecast

Almanac

Astronomy

Jul. 27, 2016 Rise Set
Actual Time
Civil Twilight
Nautical Twilight
Astronomical Twilight
Moon
Length of Visible Light
Length of Day
Tomorrow will be .
, % of the Moon is Illuminated

Today's Extremes

State Highs State Lows

Community

WunderPhotos

Upload Photos

1,927,818 photos uploaded!

WunderBlog® & News

Nearby

Air Quality

  Air Quality AQ Index Pollutant
Not available.

Snow Depth

Station Depth Elevation

Earthquake Activity

City Distance Mag. Time & Date
Minimum magnitude displayed is 2.5.

Coastal Water Temperatures

Place Temperature

Stations

Nearby Weather Stations

Station Location Temp. Windchill Dew Point Humidity Wind Precip. Elev Updated Type
                   

Watches & Warnings

There are currently no watches in effect.